sensor_id;sensor_type;location;lat;lon;timestamp;temperature;humidity
7998;DHT22;4044;49.814;7.828;2022-09-12T00:00:25;12.90;99.90
7998;DHT22;4044;49.814;7.828;2022-09-12T00:02:52;12.90;99.90
7998;DHT22;4044;49.814;7.828;2022-09-12T00:05:18;12.90;99.90
7998;DHT22;4044;49.814;7.828;2022-09-12T00:07:43;12.90;99.90
7998;DHT22;4044;49.814;7.828;2022-09-12T00:10:09;12.80;99.90
7998;DHT22;4044;49.814;7.828;2022-09-12T00:12:34;12.80;99.90
7998;DHT22;4044;49.814;7.828;2022-09-12T00:15:00;12.80;99.90
7998;DHT22;4044;49.814;7.828;2022-09-12T00:17:25;12.70;99.90
7998;DHT22;4044;49.814;7.828;2022-09-12T00:19:51;12.70;99.90
7998;DHT22;4044;49.814;7.828;2022-09-12T00:22:17;12.70;99.90
7998;DHT22;4044;49.814;7.828;2022-09-12T00:24:42;12.70;99.90
7998;DHT22;4044;49.814;7.828;2022-09-12T00:27:08;12.60;99.90
7998;DHT22;4044;49.814;7.828;2022-09-12T00:29:34;12.60;99.90
7998;DHT22;4044;49.814;7.828;2022-09-12T00:31:59;12.60;99.90
7998;DHT22;4044;49.814;7.828;2022-09-12T00:34:25;12.60;99.90
7998;DHT22;4044;49.814;7.828;2022-09-12T00:36:50;12.50;99.90
7998;DHT22;4044;49.814;7.828;2022-09-12T00:39:16;12.50;99.90
7998;DHT22;4044;49.814;7.828;2022-09-12T00:41:42;12.50;99.90
7998;DHT22;4044;49.814;7.828;2022-09-12T00:46:52;12.50;99.90
7998;DHT22;4044;49.814;7.828;2022-09-12T00:49:29;12.50;99.90
7998;DHT22;4044;49.814;7.828;2022-09-12T00:52:04;12.50;99.90
7998;DHT22;4044;49.814;7.828;2022-09-12T00:54:35;12.40;99.90
7998;DHT22;4044;49.814;7.828;2022-09-12T00:57:05;12.30;99.90
7998;DHT22;4044;49.814;7.828;2022-09-12T00:59:37;12.30;99.90
7998;DHT22;4044;49.814;7.828;2022-09-12T01:02:04;12.30;99.90
7998;DHT22;4044;49.814;7.828;2022-09-12T01:04:30;12.30;99.90
7998;DHT22;4044;49.814;7.828;2022-09-12T01:06:57;12.30;99.90
7998;DHT22;4044;49.814;7.828;2022-09-12T01:09:24;12.20;99.90
7998;DHT22;4044;49.814;7.828;2022-09-12T01:11:50;12.20;99.90
7998;DHT22;4044;49.814;7.828;2022-09-12T01:14:18;12.10;99.90
7998;DHT22;4044;49.814;7.828;2022-09-12T01:16:45;12.10;99.90
7998;DHT22;4044;49.814;7.828;2022-09-12T01:20:03;12.10;99.90
7998;DHT22;4044;49.814;7.828;2022-09-12T01:25:27;12.10;99.90
7998;DHT22;4044;49.814;7.828;2022-09-12T01:30:54;12.10;99.90
7998;DHT22;4044;49.814;7.828;2022-09-12T01:39:26;12.10;99.90
7998;DHT22;4044;49.814;7.828;2022-09-12T01:42:09;12.00;99.90
7998;DHT22;4044;49.814;7.828;2022-09-12T01:44:49;12.10;99.90
7998;DHT22;4044;49.814;7.828;2022-09-12T01:47:30;12.10;99.90
7998;DHT22;4044;49.814;7.828;2022-09-12T01:50:02;12.20;99.90
7998;DHT22;4044;49.814;7.828;2022-09-12T01:52:41;12.20;99.90
7998;DHT22;4044;49.814;7.828;2022-09-12T01:55:30;12.20;99.90
7998;DHT22;4044;49.814;7.828;2022-09-12T01:57:58;12.30;99.90
7998;DHT22;4044;49.814;7.828;2022-09-12T02:00:25;12.40;99.90
7998;DHT22;4044;49.814;7.828;2022-09-12T02:02:59;12.40;99.90
7998;DHT22;4044;49.814;7.828;2022-09-12T02:05:33;12.50;99.90
7998;DHT22;4044;49.814;7.828;2022-09-12T02:08:10;12.50;99.90
7998;DHT22;4044;49.814;7.828;2022-09-12T02:10:49;12.60;99.90
7998;DHT22;4044;49.814;7.828;2022-09-12T02:13:24;12.60;99.90
7998;DHT22;4044;49.814;7.828;2022-09-12T02:16:14;12.70;99.90
7998;DHT22;4044;49.814;7.828;2022-09-12T02:18:45;12.70;99.90
7998;DHT22;4044;49.814;7.828;2022-09-12T02:21:12;12.80;99.90
7998;DHT22;4044;49.814;7.828;2022-09-12T02:23:41;12.80;99.90
7998;DHT22;4044;49.814;7.828;2022-09-12T02:26:18;12.80;99.90
7998;DHT22;4044;49.814;7.828;2022-09-12T02:28:45;12.90;99.90
7998;DHT22;4044;49.814;7.828;2022-09-12T02:39:35;12.80;99.90
7998;DHT22;4044;49.814;7.828;2022-09-12T02:42:02;12.90;99.90
7998;DHT22;4044;49.814;7.828;2022-09-12T02:44:30;12.90;99.90
7998;DHT22;4044;49.814;7.828;2022-09-12T02:47:04;12.90;99.90
7998;DHT22;4044;49.814;7.828;2022-09-12T02:49:31;12.90;99.90
7998;DHT22;4044;49.814;7.828;2022-09-12T02:51:58;12.90;99.90
7998;DHT22;4044;49.814;7.828;2022-09-12T02:54:24;13.00;99.90
7998;DHT22;4044;49.814;7.828;2022-09-12T02:56:50;13.00;99.90
7998;DHT22;4044;49.814;7.828;2022-09-12T02:59:18;13.10;99.90
7998;DHT22;4044;49.814;7.828;2022-09-12T03:04:36;13.20;99.90
7998;DHT22;4044;49.814;7.828;2022-09-12T03:07:33;13.20;99.90
7998;DHT22;4044;49.814;7.828;2022-09-12T03:10:31;13.20;99.90
7998;DHT22;4044;49.814;7.828;2022-09-12T03:13:29;13.20;99.90
7998;DHT22;4044;49.814;7.828;2022-09-12T03:24:48;13.30;99.90
7998;DHT22;4044;49.814;7.828;2022-09-12T03:27:21;13.30;99.90
7998;DHT22;4044;49.814;7.828;2022-09-12T03:29:50;13.30;99.90
7998;DHT22;4044;49.814;7.828;2022-09-12T03:32:17;13.30;99.90
7998;DHT22;4044;49.814;7.828;2022-09-12T03:34:42;13.40;99.90
7998;DHT22;4044;49.814;7.828;2022-09-12T03:37:08;13.40;99.90
7998;DHT22;4044;49.814;7.828;2022-09-12T03:39:33;13.50;99.90
7998;DHT22;4044;49.814;7.828;2022-09-12T03:41:59;13.50;99.90
7998;DHT22;4044;49.814;7.828;2022-09-12T03:44:24;13.40;99.90
7998;DHT22;4044;49.814;7.828;2022-09-12T03:46:50;13.40;99.90
7998;DHT22;4044;49.814;7.828;2022-09-12T03:49:16;13.30;99.90
7998;DHT22;4044;49.814;7.828;2022-09-12T03:51:42;13.30;99.90
7998;DHT22;4044;49.814;7.828;2022-09-12T03:54:08;13.30;99.90
7998;DHT22;4044;49.814;7.828;2022-09-12T03:56:34;13.20;99.90
7998;DHT22;4044;49.814;7.828;2022-09-12T03:59:04;13.20;99.90
7998;DHT22;4044;49.814;7.828;2022-09-12T04:01:29;13.20;99.90
7998;DHT22;4044;49.814;7.828;2022-09-12T04:03:55;13.00;99.90
7998;DHT22;4044;49.814;7.828;2022-09-12T04:06:21;13.00;99.90
7998;DHT22;4044;49.814;7.828;2022-09-12T04:08:52;13.10;99.90
7998;DHT22;4044;49.814;7.828;2022-09-12T04:11:19;13.20;99.90
7998;DHT22;4044;49.814;7.828;2022-09-12T04:13:45;13.20;99.90
7998;DHT22;4044;49.814;7.828;2022-09-12T04:16:12;13.20;99.90
7998;DHT22;4044;49.814;7.828;2022-09-12T04:18:38;13.30;99.90
7998;DHT22;4044;49.814;7.828;2022-09-12T04:21:13;13.30;99.90
7998;DHT22;4044;49.814;7.828;2022-09-12T04:23:40;13.30;99.90
7998;DHT22;4044;49.814;7.828;2022-09-12T04:26:06;13.30;99.90
7998;DHT22;4044;49.814;7.828;2022-09-12T04:28:33;13.20;99.90
7998;DHT22;4044;49.814;7.828;2022-09-12T04:31:16;13.10;99.90
7998;DHT22;4044;49.814;7.828;2022-09-12T04:33:43;13.10;99.90
7998;DHT22;4044;49.814;7.828;2022-09-12T04:36:11;13.00;99.90
7998;DHT22;4044;49.814;7.828;2022-09-12T04:38:38;13.10;99.90
7998;DHT22;4044;49.814;7.828;2022-09-12T04:43:40;13.00;99.90
7998;DHT22;4044;49.814;7.828;2022-09-12T04:46:07;13.00;99.90
7998;DHT22;4044;49.814;7.828;2022-09-12T04:48:34;13.00;99.90
7998;DHT22;4044;49.814;7.828;2022-09-12T04:51:11;13.00;99.90
7998;DHT22;4044;49.814;7.828;2022-09-12T04:53:37;13.00;99.90
7998;DHT22;4044;49.814;7.828;2022-09-12T04:56:04;13.00;99.90
7998;DHT22;4044;49.814;7.828;2022-09-12T04:58:31;13.10;99.90
7998;DHT22;4044;49.814;7.828;2022-09-12T05:01:07;13.10;99.90
7998;DHT22;4044;49.814;7.828;2022-09-12T05:03:34;13.10;99.90
7998;DHT22;4044;49.814;7.828;2022-09-12T05:06:02;13.20;99.90
7998;DHT22;4044;49.814;7.828;2022-09-12T05:08:28;13.10;99.90
7998;DHT22;4044;49.814;7.828;2022-09-12T05:10:54;13.20;99.90
7998;DHT22;4044;49.814;7.828;2022-09-12T05:13:19;13.20;99.90
7998;DHT22;4044;49.814;7.828;2022-09-12T05:15:53;13.20;99.90
7998;DHT22;4044;49.814;7.828;2022-09-12T05:18:19;13.20;99.90
7998;DHT22;4044;49.814;7.828;2022-09-12T05:20:45;13.10;99.90
7998;DHT22;4044;49.814;7.828;2022-09-12T05:23:11;13.10;99.90
7998;DHT22;4044;49.814;7.828;2022-09-12T05:25:37;13.00;99.90
7998;DHT22;4044;49.814;7.828;2022-09-12T05:28:02;13.10;99.90
7998;DHT22;4044;49.814;7.828;2022-09-12T05:30:28;13.00;99.90
7998;DHT22;4044;49.814;7.828;2022-09-12T05:32:53;12.90;99.90
7998;DHT22;4044;49.814;7.828;2022-09-12T05:35:18;12.70;99.90
7998;DHT22;4044;49.814;7.828;2022-09-12T05:37:44;12.80;99.90
7998;DHT22;4044;49.814;7.828;2022-09-12T05:40:09;12.80;99.90
7998;DHT22;4044;49.814;7.828;2022-09-12T05:42:35;12.80;99.90
7998;DHT22;4044;49.814;7.828;2022-09-12T05:45:01;12.80;99.90
7998;DHT22;4044;49.814;7.828;2022-09-12T05:47:26;12.90;99.90
7998;DHT22;4044;49.814;7.828;2022-09-12T05:49:52;12.90;99.90
7998;DHT22;4044;49.814;7.828;2022-09-12T05:52:18;12.90;99.90
7998;DHT22;4044;49.814;7.828;2022-09-12T05:54:44;13.00;99.90
7998;DHT22;4044;49.814;7.828;2022-09-12T05:57:11;13.10;99.90
7998;DHT22;4044;49.814;7.828;2022-09-12T05:59:36;13.20;99.90
7998;DHT22;4044;49.814;7.828;2022-09-12T06:02:02;13.20;99.90
7998;DHT22;4044;49.814;7.828;2022-09-12T06:04:27;13.30;99.90
7998;DHT22;4044;49.814;7.828;2022-09-12T06:06:53;13.40;99.90
7998;DHT22;4044;49.814;7.828;2022-09-12T06:09:18;13.50;99.90
7998;DHT22;4044;49.814;7.828;2022-09-12T06:11:45;13.60;99.90
7998;DHT22;4044;49.814;7.828;2022-09-12T06:14:12;13.50;99.90
7998;DHT22;4044;49.814;7.828;2022-09-12T06:16:38;13.60;99.90
7998;DHT22;4044;49.814;7.828;2022-09-12T06:19:06;13.70;99.90
7998;DHT22;4044;49.814;7.828;2022-09-12T06:21:32;13.70;99.90
7998;DHT22;4044;49.814;7.828;2022-09-12T06:24:02;13.50;99.90
7998;DHT22;4044;49.814;7.828;2022-09-12T06:26:28;13.40;99.90
7998;DHT22;4044;49.814;7.828;2022-09-12T06:28:56;13.50;99.90
7998;DHT22;4044;49.814;7.828;2022-09-12T06:31:25;13.70;99.90
7998;DHT22;4044;49.814;7.828;2022-09-12T06:33:52;13.70;99.90
7998;DHT22;4044;49.814;7.828;2022-09-12T06:36:29;13.70;99.90
7998;DHT22;4044;49.814;7.828;2022-09-12T06:39:06;13.80;99.90
7998;DHT22;4044;49.814;7.828;2022-09-12T06:41:33;14.00;99.90
7998;DHT22;4044;49.814;7.828;2022-09-12T06:43:59;14.10;99.90
7998;DHT22;4044;49.814;7.828;2022-09-12T06:46:26;14.30;99.90
7998;DHT22;4044;49.814;7.828;2022-09-12T06:48:54;14.20;99.90
7998;DHT22;4044;49.814;7.828;2022-09-12T06:51:20;14.30;99.90
7998;DHT22;4044;49.814;7.828;2022-09-12T06:53:46;14.30;99.90
7998;DHT22;4044;49.814;7.828;2022-09-12T06:56:18;14.50;99.90
7998;DHT22;4044;49.814;7.828;2022-09-12T06:58:44;14.60;99.90
7998;DHT22;4044;49.814;7.828;2022-09-12T07:03:40;14.50;99.90
7998;DHT22;4044;49.814;7.828;2022-09-12T07:06:11;14.60;99.90
7998;DHT22;4044;49.814;7.828;2022-09-12T07:08:38;14.90;99.90
7998;DHT22;4044;49.814;7.828;2022-09-12T07:11:14;15.00;99.90
7998;DHT22;4044;49.814;7.828;2022-09-12T07:13:42;15.20;99.90
7998;DHT22;4044;49.814;7.828;2022-09-12T07:16:08;15.20;99.90
7998;DHT22;4044;49.814;7.828;2022-09-12T07:18:35;15.30;99.90
7998;DHT22;4044;49.814;7.828;2022-09-12T07:21:03;15.30;99.90
7998;DHT22;4044;49.814;7.828;2022-09-12T07:23:29;15.30;99.90
7998;DHT22;4044;49.814;7.828;2022-09-12T07:25:56;15.30;99.90
7998;DHT22;4044;49.814;7.828;2022-09-12T07:28:23;15.30;99.90
7998;DHT22;4044;49.814;7.828;2022-09-12T07:30:50;15.30;99.90
7998;DHT22;4044;49.814;7.828;2022-09-12T07:33:22;15.50;99.90
7998;DHT22;4044;49.814;7.828;2022-09-12T07:35:47;15.80;99.90
7998;DHT22;4044;49.814;7.828;2022-09-12T07:38:14;16.00;99.90
7998;DHT22;4044;49.814;7.828;2022-09-12T07:40:40;16.00;99.90
7998;DHT22;4044;49.814;7.828;2022-09-12T07:43:06;16.00;99.90
7998;DHT22;4044;49.814;7.828;2022-09-12T07:45:31;16.10;99.90
7998;DHT22;4044;49.814;7.828;2022-09-12T07:47:57;16.30;99.90
7998;DHT22;4044;49.814;7.828;2022-09-12T07:50:22;16.40;99.90
7998;DHT22;4044;49.814;7.828;2022-09-12T07:52:48;16.30;99.90
7998;DHT22;4044;49.814;7.828;2022-09-12T07:55:15;16.20;99.90
7998;DHT22;4044;49.814;7.828;2022-09-12T07:57:41;16.40;99.90
7998;DHT22;4044;49.814;7.828;2022-09-12T08:00:07;16.50;99.90
7998;DHT22;4044;49.814;7.828;2022-09-12T08:02:33;16.60;99.90
7998;DHT22;4044;49.814;7.828;2022-09-12T08:04:58;16.60;99.90
7998;DHT22;4044;49.814;7.828;2022-09-12T08:07:24;16.70;99.90
7998;DHT22;4044;49.814;7.828;2022-09-12T08:09:50;16.60;99.90
7998;DHT22;4044;49.814;7.828;2022-09-12T08:12:15;16.70;99.90
7998;DHT22;4044;49.814;7.828;2022-09-12T08:14:42;16.60;99.90
7998;DHT22;4044;49.814;7.828;2022-09-12T08:17:07;16.50;99.90
7998;DHT22;4044;49.814;7.828;2022-09-12T08:19:33;16.40;99.90
7998;DHT22;4044;49.814;7.828;2022-09-12T08:21:58;16.40;99.90
7998;DHT22;4044;49.814;7.828;2022-09-12T08:24:24;16.40;99.90
7998;DHT22;4044;49.814;7.828;2022-09-12T08:26:49;16.50;99.90
7998;DHT22;4044;49.814;7.828;2022-09-12T08:29:15;16.60;99.90
7998;DHT22;4044;49.814;7.828;2022-09-12T08:31:41;16.70;99.90
7998;DHT22;4044;49.814;7.828;2022-09-12T08:34:07;16.80;99.90
7998;DHT22;4044;49.814;7.828;2022-09-12T08:36:33;17.00;99.90
7998;DHT22;4044;49.814;7.828;2022-09-12T08:39:03;17.00;99.90
7998;DHT22;4044;49.814;7.828;2022-09-12T08:41:43;17.20;99.90
7998;DHT22;4044;49.814;7.828;2022-09-12T08:47:26;17.50;99.90
7998;DHT22;4044;49.814;7.828;2022-09-12T08:49:59;17.60;99.90
7998;DHT22;4044;49.814;7.828;2022-09-12T08:52:40;17.50;99.90
7998;DHT22;4044;49.814;7.828;2022-09-12T08:55:23;17.60;99.90
7998;DHT22;4044;49.814;7.828;2022-09-12T08:57:50;17.70;99.90
7998;DHT22;4044;49.814;7.828;2022-09-12T09:00:16;17.80;99.90
7998;DHT22;4044;49.814;7.828;2022-09-12T09:03:08;17.80;99.90
7998;DHT22;4044;49.814;7.828;2022-09-12T09:13:51;18.20;99.90
7998;DHT22;4044;49.814;7.828;2022-09-12T09:16:43;18.40;99.90
7998;DHT22;4044;49.814;7.828;2022-09-12T09:19:15;18.50;99.90
7998;DHT22;4044;49.814;7.828;2022-09-12T09:22:02;18.60;99.90
7998;DHT22;4044;49.814;7.828;2022-09-12T09:24:37;18.70;99.90
7998;DHT22;4044;49.814;7.828;2022-09-12T09:27:09;18.90;99.90
7998;DHT22;4044;49.814;7.828;2022-09-12T09:29:42;19.00;99.90
7998;DHT22;4044;49.814;7.828;2022-09-12T09:32:16;19.10;99.90
7998;DHT22;4044;49.814;7.828;2022-09-12T09:34:42;19.20;99.90
7998;DHT22;4044;49.814;7.828;2022-09-12T09:37:19;19.20;99.90
7998;DHT22;4044;49.814;7.828;2022-09-12T09:40:04;19.30;99.90
7998;DHT22;4044;49.814;7.828;2022-09-12T09:44:59;19.60;99.90
7998;DHT22;4044;49.814;7.828;2022-09-12T09:47:27;20.00;99.90
7998;DHT22;4044;49.814;7.828;2022-09-12T09:49:52;20.20;99.90
7998;DHT22;4044;49.814;7.828;2022-09-12T09:52:24;20.40;99.90
7998;DHT22;4044;49.814;7.828;2022-09-12T09:54:59;20.60;99.90
7998;DHT22;4044;49.814;7.828;2022-09-12T10:03:02;20.90;99.90
7998;DHT22;4044;49.814;7.828;2022-09-12T10:05:29;21.10;99.90
7998;DHT22;4044;49.814;7.828;2022-09-12T10:07:56;21.20;99.90
7998;DHT22;4044;49.814;7.828;2022-09-12T10:10:23;21.40;99.90
7998;DHT22;4044;49.814;7.828;2022-09-12T10:12:50;21.50;99.90
7998;DHT22;4044;49.814;7.828;2022-09-12T10:15:30;21.70;99.90
7998;DHT22;4044;49.814;7.828;2022-09-12T10:17:56;21.80;99.90
7998;DHT22;4044;49.814;7.828;2022-09-12T10:20:42;21.80;99.90
7998;DHT22;4044;49.814;7.828;2022-09-12T10:25:53;22.00;99.90
7998;DHT22;4044;49.814;7.828;2022-09-12T10:28:35;22.10;99.90
7998;DHT22;4044;49.814;7.828;2022-09-12T10:31:02;22.20;99.90
7998;DHT22;4044;49.814;7.828;2022-09-12T10:33:28;22.50;99.90
7998;DHT22;4044;49.814;7.828;2022-09-12T10:35:54;22.70;99.90
7998;DHT22;4044;49.814;7.828;2022-09-12T10:38:23;23.00;99.90
7998;DHT22;4044;49.814;7.828;2022-09-12T10:41:05;23.20;99.90
7998;DHT22;4044;49.814;7.828;2022-09-12T10:45:58;23.30;99.90
7998;DHT22;4044;49.814;7.828;2022-09-12T10:48:29;23.40;99.90
7998;DHT22;4044;49.814;7.828;2022-09-12T10:50:59;23.50;99.90
7998;DHT22;4044;49.814;7.828;2022-09-12T10:53:29;23.70;99.90
7998;DHT22;4044;49.814;7.828;2022-09-12T10:56:12;23.80;99.90
7998;DHT22;4044;49.814;7.828;2022-09-12T10:58:53;23.90;99.60
7998;DHT22;4044;49.814;7.828;2022-09-12T11:01:34;24.00;99.90
7998;DHT22;4044;49.814;7.828;2022-09-12T11:04:04;24.20;99.60
7998;DHT22;4044;49.814;7.828;2022-09-12T11:09:33;24.80;98.80
7998;DHT22;4044;49.814;7.828;2022-09-12T11:12:23;25.00;98.20
7998;DHT22;4044;49.814;7.828;2022-09-12T11:23:38;24.80;96.90
7998;DHT22;4044;49.814;7.828;2022-09-12T11:29:08;25.50;94.00
7998;DHT22;4044;49.814;7.828;2022-09-12T11:32:01;25.70;94.50
7998;DHT22;4044;49.814;7.828;2022-09-12T11:37:31;26.10;93.90
7998;DHT22;4044;49.814;7.828;2022-09-12T11:43:41;26.50;92.80
7998;DHT22;4044;49.814;7.828;2022-09-12T11:45:42;26.50;91.50
7998;DHT22;4044;49.814;7.828;2022-09-12T11:48:29;26.70;91.50
7998;DHT22;4044;49.814;7.828;2022-09-12T11:50:57;26.50;89.40
7998;DHT22;4044;49.814;7.828;2022-09-12T11:53:30;26.40;89.20
7998;DHT22;4044;49.814;7.828;2022-09-12T11:56:01;26.70;89.20
7998;DHT22;4044;49.814;7.828;2022-09-12T11:58:29;27.20;89.10
7998;DHT22;4044;49.814;7.828;2022-09-12T12:01:10;27.70;84.80
7998;DHT22;4044;49.814;7.828;2022-09-12T12:03:40;27.80;85.20
7998;DHT22;4044;49.814;7.828;2022-09-12T12:06:17;27.50;82.90
7998;DHT22;4044;49.814;7.828;2022-09-12T12:08:44;28.30;85.60
7998;DHT22;4044;49.814;7.828;2022-09-12T12:11:32;29.00;80.80
7998;DHT22;4044;49.814;7.828;2022-09-12T12:14:02;29.60;78.00
7998;DHT22;4044;49.814;7.828;2022-09-12T12:16:31;30.10;78.00
7998;DHT22;4044;49.814;7.828;2022-09-12T12:19:03;30.70;78.00
7998;DHT22;4044;49.814;7.828;2022-09-12T12:21:34;30.80;76.70
7998;DHT22;4044;49.814;7.828;2022-09-12T12:34:43;34.10;62.90
7998;DHT22;4044;49.814;7.828;2022-09-12T12:44:57;33.20;61.70
7998;DHT22;4044;49.814;7.828;2022-09-12T12:47:25;33.50;62.80
7998;DHT22;4044;49.814;7.828;2022-09-12T12:49:57;34.40;62.60
7998;DHT22;4044;49.814;7.828;2022-09-12T12:52:26;35.10;60.60
7998;DHT22;4044;49.814;7.828;2022-09-12T12:55:01;34.90;56.40
7998;DHT22;4044;49.814;7.828;2022-09-12T12:57:39;35.80;58.20
7998;DHT22;4044;49.814;7.828;2022-09-12T13:05:36;37.40;52.00
7998;DHT22;4044;49.814;7.828;2022-09-12T13:08:22;37.90;54.40
7998;DHT22;4044;49.814;7.828;2022-09-12T13:13:30;38.40;53.10
7998;DHT22;4044;49.814;7.828;2022-09-12T13:15:56;38.90;52.80
7998;DHT22;4044;49.814;7.828;2022-09-12T13:18:27;39.40;53.60
7998;DHT22;4044;49.814;7.828;2022-09-12T13:20:58;39.70;52.20
7998;DHT22;4044;49.814;7.828;2022-09-12T13:23:29;39.60;50.80
7998;DHT22;4044;49.814;7.828;2022-09-12T13:25:57;39.60;49.70
7998;DHT22;4044;49.814;7.828;2022-09-12T13:28:25;39.60;50.30
7998;DHT22;4044;49.814;7.828;2022-09-12T13:31:18;39.00;48.90
7998;DHT22;4044;49.814;7.828;2022-09-12T13:33:50;39.20;47.50
7998;DHT22;4044;49.814;7.828;2022-09-12T13:36:44;39.30;48.60
7998;DHT22;4044;49.814;7.828;2022-09-12T13:42:19;40.00;49.20
7998;DHT22;4044;49.814;7.828;2022-09-12T13:44:50;40.20;47.30
7998;DHT22;4044;49.814;7.828;2022-09-12T13:47:23;40.60;48.20
7998;DHT22;4044;49.814;7.828;2022-09-12T13:49:50;41.00;47.60
7998;DHT22;4044;49.814;7.828;2022-09-12T13:52:21;41.20;49.30
7998;DHT22;4044;49.814;7.828;2022-09-12T13:54:55;41.00;46.70
7998;DHT22;4044;49.814;7.828;2022-09-12T13:57:31;41.00;46.00
7998;DHT22;4044;49.814;7.828;2022-09-12T13:59:59;41.00;46.80
7998;DHT22;4044;49.814;7.828;2022-09-12T14:02:27;40.90;46.90
7998;DHT22;4044;49.814;7.828;2022-09-12T14:04:54;40.90;46.40
7998;DHT22;4044;49.814;7.828;2022-09-12T14:07:44;41.00;46.30
7998;DHT22;4044;49.814;7.828;2022-09-12T14:10:25;40.90;45.40
7998;DHT22;4044;49.814;7.828;2022-09-12T14:12:52;41.20;45.70
7998;DHT22;4044;49.814;7.828;2022-09-12T14:15:22;41.20;45.40
7998;DHT22;4044;49.814;7.828;2022-09-12T14:17:52;41.30;45.40
7998;DHT22;4044;49.814;7.828;2022-09-12T14:20:20;41.50;46.00
7998;DHT22;4044;49.814;7.828;2022-09-12T14:22:49;41.00;45.70
7998;DHT22;4044;49.814;7.828;2022-09-12T14:25:24;40.50;42.40
7998;DHT22;4044;49.814;7.828;2022-09-12T14:27:56;38.90;43.00
7998;DHT22;4044;49.814;7.828;2022-09-12T14:30:30;38.90;45.00
7998;DHT22;4044;49.814;7.828;2022-09-12T14:35:37;40.30;44.50
7998;DHT22;4044;49.814;7.828;2022-09-12T14:40:57;40.00;42.50
7998;DHT22;4044;49.814;7.828;2022-09-12T14:43:27;39.50;42.10
7998;DHT22;4044;49.814;7.828;2022-09-12T14:45:55;39.60;43.50
7998;DHT22;4044;49.814;7.828;2022-09-12T14:48:21;39.20;43.90
7998;DHT22;4044;49.814;7.828;2022-09-12T14:50:51;38.90;42.30
7998;DHT22;4044;49.814;7.828;2022-09-12T14:55:51;38.30;45.40
7998;DHT22;4044;49.814;7.828;2022-09-12T15:03:49;39.00;42.30
7998;DHT22;4044;49.814;7.828;2022-09-12T15:06:26;38.70;42.80
7998;DHT22;4044;49.814;7.828;2022-09-12T15:08:56;38.70;43.50
7998;DHT22;4044;49.814;7.828;2022-09-12T15:11:22;38.80;45.10
7998;DHT22;4044;49.814;7.828;2022-09-12T15:13:48;39.00;43.50
7998;DHT22;4044;49.814;7.828;2022-09-12T15:16:14;39.60;44.40
7998;DHT22;4044;49.814;7.828;2022-09-12T15:18:40;40.30;42.90
7998;DHT22;4044;49.814;7.828;2022-09-12T15:21:07;40.40;42.80
7998;DHT22;4044;49.814;7.828;2022-09-12T15:23:44;40.70;42.30
7998;DHT22;4044;49.814;7.828;2022-09-12T15:26:16;40.90;42.00
7998;DHT22;4044;49.814;7.828;2022-09-12T15:28:42;41.00;42.40
7998;DHT22;4044;49.814;7.828;2022-09-12T15:31:24;41.30;42.20
7998;DHT22;4044;49.814;7.828;2022-09-12T15:33:50;41.40;39.50
7998;DHT22;4044;49.814;7.828;2022-09-12T15:36:18;40.50;41.70
7998;DHT22;4044;49.814;7.828;2022-09-12T15:38:46;40.70;41.80
7998;DHT22;4044;49.814;7.828;2022-09-12T15:41:17;40.80;40.00
7998;DHT22;4044;49.814;7.828;2022-09-12T15:43:44;40.30;42.30
7998;DHT22;4044;49.814;7.828;2022-09-12T15:46:12;40.60;43.10
7998;DHT22;4044;49.814;7.828;2022-09-12T15:48:38;40.50;42.10
7998;DHT22;4044;49.814;7.828;2022-09-12T15:51:04;39.80;41.30
7998;DHT22;4044;49.814;7.828;2022-09-12T15:53:30;38.70;42.60
7998;DHT22;4044;49.814;7.828;2022-09-12T15:55:56;38.30;42.30
7998;DHT22;4044;49.814;7.828;2022-09-12T15:58:21;37.50;43.50
7998;DHT22;4044;49.814;7.828;2022-09-12T16:00:47;36.80;43.90
7998;DHT22;4044;49.814;7.828;2022-09-12T16:03:24;36.70;44.90
7998;DHT22;4044;49.814;7.828;2022-09-12T16:05:55;36.40;44.40
7998;DHT22;4044;49.814;7.828;2022-09-12T16:08:21;36.20;45.30
7998;DHT22;4044;49.814;7.828;2022-09-12T16:10:50;36.60;45.10
7998;DHT22;4044;49.814;7.828;2022-09-12T16:13:17;36.60;45.10
7998;DHT22;4044;49.814;7.828;2022-09-12T16:15:42;36.40;45.00
7998;DHT22;4044;49.814;7.828;2022-09-12T16:18:08;36.50;45.90
7998;DHT22;4044;49.814;7.828;2022-09-12T16:20:34;36.80;46.10
7998;DHT22;4044;49.814;7.828;2022-09-12T16:22:59;36.50;45.00
7998;DHT22;4044;49.814;7.828;2022-09-12T16:25:25;36.00;45.60
7998;DHT22;4044;49.814;7.828;2022-09-12T16:27:50;35.90;46.30
7998;DHT22;4044;49.814;7.828;2022-09-12T16:30:16;35.30;46.50
7998;DHT22;4044;49.814;7.828;2022-09-12T16:32:41;34.70;47.30
7998;DHT22;4044;49.814;7.828;2022-09-12T16:35:07;34.00;47.70
7998;DHT22;4044;49.814;7.828;2022-09-12T16:37:33;33.30;48.40
7998;DHT22;4044;49.814;7.828;2022-09-12T16:39:59;32.80;50.20
7998;DHT22;4044;49.814;7.828;2022-09-12T16:42:25;32.40;50.20
7998;DHT22;4044;49.814;7.828;2022-09-12T16:44:50;31.90;50.70
7998;DHT22;4044;49.814;7.828;2022-09-12T16:47:16;31.50;51.30
7998;DHT22;4044;49.814;7.828;2022-09-12T16:49:41;31.10;51.70
7998;DHT22;4044;49.814;7.828;2022-09-12T16:52:08;30.70;52.00
7998;DHT22;4044;49.814;7.828;2022-09-12T16:54:34;30.20;52.20
7998;DHT22;4044;49.814;7.828;2022-09-12T16:56:59;29.90;53.20
7998;DHT22;4044;49.814;7.828;2022-09-12T16:59:25;29.70;53.00
7998;DHT22;4044;49.814;7.828;2022-09-12T17:01:50;29.40;54.30
7998;DHT22;4044;49.814;7.828;2022-09-12T17:04:16;29.00;54.10
7998;DHT22;4044;49.814;7.828;2022-09-12T17:06:42;28.80;54.70
7998;DHT22;4044;49.814;7.828;2022-09-12T17:09:08;28.60;55.30
7998;DHT22;4044;49.814;7.828;2022-09-12T17:11:36;28.40;55.80
7998;DHT22;4044;49.814;7.828;2022-09-12T17:14:04;28.10;55.70
7998;DHT22;4044;49.814;7.828;2022-09-12T17:16:34;27.90;56.20
7998;DHT22;4044;49.814;7.828;2022-09-12T17:18:59;27.70;57.30
7998;DHT22;4044;49.814;7.828;2022-09-12T17:21:25;27.50;58.90
7998;DHT22;4044;49.814;7.828;2022-09-12T17:23:50;27.20;60.20
7998;DHT22;4044;49.814;7.828;2022-09-12T17:26:16;27.10;61.20
7998;DHT22;4044;49.814;7.828;2022-09-12T17:28:42;26.80;61.70
7998;DHT22;4044;49.814;7.828;2022-09-12T17:31:10;26.50;61.80
7998;DHT22;4044;49.814;7.828;2022-09-12T17:33:36;26.20;63.70
7998;DHT22;4044;49.814;7.828;2022-09-12T17:36:04;25.90;64.40
7998;DHT22;4044;49.814;7.828;2022-09-12T17:38:31;25.60;65.30
7998;DHT22;4044;49.814;7.828;2022-09-12T17:41:10;25.30;66.50
7998;DHT22;4044;49.814;7.828;2022-09-12T17:43:39;25.00;68.90
7998;DHT22;4044;49.814;7.828;2022-09-12T17:46:05;24.70;68.20
7998;DHT22;4044;49.814;7.828;2022-09-12T17:48:31;24.40;71.40
7998;DHT22;4044;49.814;7.828;2022-09-12T17:50:57;24.20;69.00
7998;DHT22;4044;49.814;7.828;2022-09-12T17:53:23;23.90;69.80
7998;DHT22;4044;49.814;7.828;2022-09-12T17:55:50;23.70;70.70
7998;DHT22;4044;49.814;7.828;2022-09-12T17:58:15;23.50;70.70
7998;DHT22;4044;49.814;7.828;2022-09-12T18:00:41;23.20;73.10
7998;DHT22;4044;49.814;7.828;2022-09-12T18:03:25;23.00;73.00
7998;DHT22;4044;49.814;7.828;2022-09-12T18:05:52;22.70;76.20
7998;DHT22;4044;49.814;7.828;2022-09-12T18:08:19;22.50;75.10
7998;DHT22;4044;49.814;7.828;2022-09-12T18:10:45;22.30;75.50
7998;DHT22;4044;49.814;7.828;2022-09-12T18:13:11;22.20;75.90
7998;DHT22;4044;49.814;7.828;2022-09-12T18:15:37;22.10;75.50
7998;DHT22;4044;49.814;7.828;2022-09-12T18:18:03;22.00;73.50
7998;DHT22;4044;49.814;7.828;2022-09-12T18:20:29;21.90;73.10
7998;DHT22;4044;49.814;7.828;2022-09-12T18:22:55;21.90;74.40
7998;DHT22;4044;49.814;7.828;2022-09-12T18:25:20;21.70;75.60